sensor_id;sensor_type;location;lat;lon;timestamp;pressure;altitude;pressure_sealevel;temperature;humidity
56632;BME280;42503;39.928;-75.152;2023-05-10T00:07:15;101380.31;;;23.63;30.68
56632;BME280;42503;39.928;-75.152;2023-05-10T00:17:20;101403.50;;;23.73;30.88
56632;BME280;42503;39.928;-75.152;2023-05-10T00:27:22;101430.91;;;23.66;31.67
56632;BME280;42503;39.928;-75.152;2023-05-10T00:37:26;101452.72;;;23.54;31.93
56632;BME280;42503;39.928;-75.152;2023-05-10T00:47:28;101479.53;;;23.65;30.95
56632;BME280;42503;39.928;-75.152;2023-05-10T00:57:30;101497.13;;;23.61;31.17
56632;BME280;42503;39.928;-75.152;2023-05-10T01:07:31;101402.69;;;22.88;30.68
56632;BME280;42503;39.928;-75.152;2023-05-10T01:17:34;101565.84;;;23.67;31.13
56632;BME280;42503;39.928;-75.152;2023-05-10T01:48:30;101640.44;;;23.61;31.17
56632;BME280;42503;39.928;-75.152;2023-05-10T01:58:33;101608.63;;;23.26;31.82
56632;BME280;42503;39.928;-75.152;2023-05-10T02:08:38;101646.03;;;23.41;33.09
56632;BME280;42503;39.928;-75.152;2023-05-10T02:18:43;101693.53;;;23.66;33.41
56632;BME280;42503;39.928;-75.152;2023-05-10T02:28:46;101703.59;;;23.67;32.50
56632;BME280;42503;39.928;-75.152;2023-05-10T02:38:49;101710.81;;;23.63;32.99
56632;BME280;42503;39.928;-75.152;2023-05-10T02:48:52;101603.91;;;22.91;33.36
56632;BME280;42503;39.928;-75.152;2023-05-10T02:58:55;101700.22;;;23.60;32.47
56632;BME280;42503;39.928;-75.152;2023-05-10T03:08:56;101726.47;;;23.59;31.71
56632;BME280;42503;39.928;-75.152;2023-05-10T03:19:10;101747.44;;;23.51;32.92
56632;BME280;42503;39.928;-75.152;2023-05-10T03:29:14;101733.19;;;23.53;32.63
56632;BME280;42503;39.928;-75.152;2023-05-10T03:39:22;101746.31;;;23.52;32.98
56632;BME280;42503;39.928;-75.152;2023-05-10T03:49:24;101756.13;;;23.55;32.70
56632;BME280;42503;39.928;-75.152;2023-05-10T03:59:25;101742.66;;;23.37;32.28
56632;BME280;42503;39.928;-75.152;2023-05-10T04:09:26;101729.84;;;23.20;32.80
56632;BME280;42503;39.928;-75.152;2023-05-10T04:19:31;101763.09;;;23.37;32.97
56632;BME280;42503;39.928;-75.152;2023-05-10T04:29:32;101758.88;;;23.45;33.44
56632;BME280;42503;39.928;-75.152;2023-05-10T04:39:33;101782.91;;;23.46;32.40
56632;BME280;42503;39.928;-75.152;2023-05-10T04:49:38;101783.47;;;23.43;31.44
56632;BME280;42503;39.928;-75.152;2023-05-10T04:59:42;101804.16;;;23.42;31.32
56632;BME280;42503;39.928;-75.152;2023-05-10T05:09:43;101808.03;;;23.36;31.43
56632;BME280;42503;39.928;-75.152;2023-05-10T05:19:45;101796.84;;;23.20;31.23
56632;BME280;42503;39.928;-75.152;2023-05-10T05:29:46;101695.59;;;22.52;31.46
56632;BME280;42503;39.928;-75.152;2023-05-10T05:39:48;101828.13;;;23.27;31.37
56632;BME280;42503;39.928;-75.152;2023-05-10T05:49:49;101821.38;;;23.08;31.62
56632;BME280;42503;39.928;-75.152;2023-05-10T05:59:51;101814.97;;;23.13;32.18
56632;BME280;42503;39.928;-75.152;2023-05-10T06:09:52;101818.06;;;23.16;31.30
56632;BME280;42503;39.928;-75.152;2023-05-10T06:19:56;101826.44;;;23.16;32.23
56632;BME280;42503;39.928;-75.152;2023-05-10T06:29:58;101840.94;;;23.18;32.63
56632;BME280;42503;39.928;-75.152;2023-05-10T06:39:59;101832.53;;;23.13;31.63
56632;BME280;42503;39.928;-75.152;2023-05-10T06:50:03;101833.38;;;23.08;31.65
56632;BME280;42503;39.928;-75.152;2023-05-10T07:00:16;101840.91;;;23.08;31.16
56632;BME280;42503;39.928;-75.152;2023-05-10T07:10:23;101849.88;;;23.15;33.67
56632;BME280;42503;39.928;-75.152;2023-05-10T07:20:25;101863.84;;;23.20;33.57
56632;BME280;42503;39.928;-75.152;2023-05-10T07:30:28;101873.34;;;23.19;32.97
56632;BME280;42503;39.928;-75.152;2023-05-10T07:40:29;101878.09;;;23.19;33.46
56632;BME280;42503;39.928;-75.152;2023-05-10T07:50:31;101880.06;;;23.23;33.58
56632;BME280;42503;39.928;-75.152;2023-05-10T08:00:32;101890.09;;;23.19;33.83
56632;BME280;42503;39.928;-75.152;2023-05-10T08:10:36;101885.06;;;23.16;33.14
56632;BME280;42503;39.928;-75.152;2023-05-10T08:20:40;101852.91;;;23.08;34.39
56632;BME280;42503;39.928;-75.152;2023-05-10T08:30:41;101905.75;;;23.25;33.47
56632;BME280;42503;39.928;-75.152;2023-05-10T08:40:43;101912.44;;;23.19;33.42
56632;BME280;42503;39.928;-75.152;2023-05-10T08:50:46;101815.56;;;22.57;33.78
56632;BME280;42503;39.928;-75.152;2023-05-10T09:00:51;101899.53;;;23.03;32.77
56632;BME280;42503;39.928;-75.152;2023-05-10T09:10:54;101928.88;;;23.11;33.54
56632;BME280;42503;39.928;-75.152;2023-05-10T09:20:58;101922.44;;;23.05;34.97
56632;BME280;42503;39.928;-75.152;2023-05-10T09:31:03;101951.56;;;23.24;34.43
56632;BME280;42503;39.928;-75.152;2023-05-10T09:41:17;101974.16;;;23.23;34.54
56632;BME280;42503;39.928;-75.152;2023-05-10T09:51:23;101981.97;;;23.21;34.60
56632;BME280;42503;39.928;-75.152;2023-05-10T10:01:26;102005.44;;;23.20;34.95
56632;BME280;42503;39.928;-75.152;2023-05-10T10:11:30;102007.34;;;23.14;34.63
56632;BME280;42503;39.928;-75.152;2023-05-10T10:21:44;102021.50;;;23.02;34.15
56632;BME280;42503;39.928;-75.152;2023-05-10T10:42:09;102053.44;;;22.84;34.68
56632;BME280;42503;39.928;-75.152;2023-05-10T10:52:24;102072.78;;;22.59;35.25
56632;BME280;42503;39.928;-75.152;2023-05-10T11:02:43;102093.16;;;22.60;35.69
56632;BME280;42503;39.928;-75.152;2023-05-10T11:13:13;102094.56;;;22.62;35.83
56632;BME280;42503;39.928;-75.152;2023-05-10T11:33:54;102044.53;;;22.23;35.78
56632;BME280;42503;39.928;-75.152;2023-05-10T11:43:59;102117.25;;;22.71;35.44
56632;BME280;42503;39.928;-75.152;2023-05-10T11:54:05;102047.72;;;22.10;35.95
56632;BME280;42503;39.928;-75.152;2023-05-10T12:04:08;102110.72;;;22.60;35.08
56632;BME280;42503;39.928;-75.152;2023-05-10T12:14:09;102143.38;;;22.60;35.77
56632;BME280;42503;39.928;-75.152;2023-05-10T12:24:12;102141.75;;;22.64;34.57
56632;BME280;42503;39.928;-75.152;2023-05-10T12:34:25;102146.94;;;22.55;34.89
56632;BME280;42503;39.928;-75.152;2023-05-10T12:44:27;102136.81;;;22.49;34.75
56632;BME280;42503;39.928;-75.152;2023-05-10T12:54:28;102161.28;;;22.64;34.19
56632;BME280;42503;39.928;-75.152;2023-05-10T13:04:30;102159.47;;;22.52;35.44
56632;BME280;42503;39.928;-75.152;2023-05-10T13:14:31;102133.81;;;22.28;35.38
56632;BME280;42503;39.928;-75.152;2023-05-10T13:24:32;102139.69;;;22.27;35.27
56632;BME280;42503;39.928;-75.152;2023-05-10T13:34:34;102141.94;;;22.57;35.11
56632;BME280;42503;39.928;-75.152;2023-05-10T13:44:36;102149.78;;;22.60;33.86
56632;BME280;42503;39.928;-75.152;2023-05-10T13:54:42;102147.00;;;22.60;34.31
56632;BME280;42503;39.928;-75.152;2023-05-10T14:04:43;102141.03;;;22.51;33.85
56632;BME280;42503;39.928;-75.152;2023-05-10T14:14:45;102019.03;;;21.88;34.02
56632;BME280;42503;39.928;-75.152;2023-05-10T14:24:46;102131.41;;;22.37;33.68
56632;BME280;42503;39.928;-75.152;2023-05-10T14:34:48;102143.03;;;22.56;32.90
56632;BME280;42503;39.928;-75.152;2023-05-10T14:44:49;102126.81;;;22.53;33.79
56632;BME280;42503;39.928;-75.152;2023-05-10T14:54:50;102106.09;;;22.44;33.29
56632;BME280;42503;39.928;-75.152;2023-05-10T15:04:52;102108.94;;;22.49;32.95
56632;BME280;42503;39.928;-75.152;2023-05-10T15:14:53;102111.34;;;22.67;32.55
56632;BME280;42503;39.928;-75.152;2023-05-10T15:24:54;102123.75;;;22.81;32.13
56632;BME280;42503;39.928;-75.152;2023-05-10T15:34:56;102122.31;;;22.74;32.19
56632;BME280;42503;39.928;-75.152;2023-05-10T15:45:00;102112.84;;;22.80;32.26
56632;BME280;42503;39.928;-75.152;2023-05-10T15:55:02;101997.63;;;22.15;32.37
56632;BME280;42503;39.928;-75.152;2023-05-10T16:05:04;102107.31;;;22.85;32.12
56632;BME280;42503;39.928;-75.152;2023-05-10T16:15:06;102103.13;;;22.82;31.69
56632;BME280;42503;39.928;-75.152;2023-05-10T16:25:08;102061.44;;;22.71;31.76
56632;BME280;42503;39.928;-75.152;2023-05-10T16:35:09;102047.72;;;22.64;31.74
56632;BME280;42503;39.928;-75.152;2023-05-10T16:45:11;102053.41;;;22.79;31.60
56632;BME280;42503;39.928;-75.152;2023-05-10T16:55:12;102051.06;;;22.98;32.17
56632;BME280;42503;39.928;-75.152;2023-05-10T17:05:14;102036.31;;;23.03;32.01
56632;BME280;42503;39.928;-75.152;2023-05-10T17:15:15;102017.94;;;23.12;31.55
56632;BME280;42503;39.928;-75.152;2023-05-10T17:25:21;101994.41;;;22.98;31.46
56632;BME280;42503;39.928;-75.152;2023-05-10T17:35:23;102000.50;;;22.95;30.33
56632;BME280;42503;39.928;-75.152;2023-05-10T17:45:24;101995.03;;;23.05;31.37
56632;BME280;42503;39.928;-75.152;2023-05-10T17:55:26;101978.53;;;23.03;30.95
56632;BME280;42503;39.928;-75.152;2023-05-10T18:05:30;101924.75;;;22.76;30.86
56632;BME280;42503;39.928;-75.152;2023-05-10T18:15:32;101962.69;;;23.14;31.28
56632;BME280;42503;39.928;-75.152;2023-05-10T18:25:40;101948.47;;;23.21;31.30
56632;BME280;42503;39.928;-75.152;2023-05-10T18:35:41;101925.00;;;23.17;31.36
56632;BME280;42503;39.928;-75.152;2023-05-10T18:45:42;101930.03;;;23.20;30.67
56632;BME280;42503;39.928;-75.152;2023-05-10T18:55:44;101903.50;;;23.27;31.21
56632;BME280;42503;39.928;-75.152;2023-05-10T19:05:45;101880.91;;;23.24;30.61
56632;BME280;42503;39.928;-75.152;2023-05-10T19:16:09;101849.31;;;23.13;30.94
56632;BME280;42503;39.928;-75.152;2023-05-10T19:26:11;101869.75;;;23.34;30.94
56632;BME280;42503;39.928;-75.152;2023-05-10T19:36:12;101849.94;;;23.36;30.94
56632;BME280;42503;39.928;-75.152;2023-05-10T19:46:16;101834.81;;;23.26;30.42
56632;BME280;42503;39.928;-75.152;2023-05-10T19:56:20;101795.13;;;23.09;30.57
56632;BME280;42503;39.928;-75.152;2023-05-10T20:06:21;101802.19;;;23.37;31.11
56632;BME280;42503;39.928;-75.152;2023-05-10T20:16:22;101777.31;;;23.36;30.99
56632;BME280;42503;39.928;-75.152;2023-05-10T20:26:24;101787.66;;;23.40;31.32
56632;BME280;42503;39.928;-75.152;2023-05-10T20:36:26;101806.66;;;23.43;30.74
56632;BME280;42503;39.928;-75.152;2023-05-10T20:46:31;101777.31;;;23.25;30.63
56632;BME280;42503;39.928;-75.152;2023-05-10T20:56:33;101795.78;;;23.47;30.67
56632;BME280;42503;39.928;-75.152;2023-05-10T21:06:34;101813.91;;;23.44;30.71
56632;BME280;42503;39.928;-75.152;2023-05-10T21:16:36;101784.56;;;23.37;30.08
56632;BME280;42503;39.928;-75.152;2023-05-10T21:26:37;101793.81;;;23.47;30.52
56632;BME280;42503;39.928;-75.152;2023-05-10T21:36:38;101768.91;;;23.20;29.51
56632;BME280;42503;39.928;-75.152;2023-05-10T21:46:40;101803.03;;;23.48;29.08
56632;BME280;42503;39.928;-75.152;2023-05-10T21:56:41;101782.06;;;23.35;30.04
56632;BME280;42503;39.928;-75.152;2023-05-10T22:06:46;101817.00;;;23.53;29.53
56632;BME280;42503;39.928;-75.152;2023-05-10T22:16:47;101814.22;;;23.48;28.57
56632;BME280;42503;39.928;-75.152;2023-05-10T22:26:49;101790.72;;;23.44;28.69
56632;BME280;42503;39.928;-75.152;2023-05-10T22:36:50;101772.56;;;23.36;29.03
56632;BME280;42503;39.928;-75.152;2023-05-10T22:46:51;101766.72;;;23.32;28.29
56632;BME280;42503;39.928;-75.152;2023-05-10T22:56:53;101666.38;;;22.75;28.53
56632;BME280;42503;39.928;-75.152;2023-05-10T23:06:54;101750.50;;;23.34;28.44
56632;BME280;42503;39.928;-75.152;2023-05-10T23:16:56;101790.47;;;23.50;28.82
56632;BME280;42503;39.928;-75.152;2023-05-10T23:26:57;101785.97;;;23.44;27.95
56632;BME280;42503;39.928;-75.152;2023-05-10T23:37:01;101733.16;;;23.12;27.91
56632;BME280;42503;39.928;-75.152;2023-05-10T23:47:03;101781.81;;;23.47;27.40
56632;BME280;42503;39.928;-75.152;2023-05-10T23:57:04;101773.38;;;23.26;27.70
